Leivasy, WV (26676)

5:35 AM EDT on September 30, 2016 (GMT -0400)
The Family Center | | Change Station

Elev 2192 ft 38.22 °N, 80.53 °W | Updated 13 minutes ago

Overcast
Overcast
57.4 °F
Feels Like 57.4 °F
N
0.0
Wind Variable Wind from East
Gusts 2.0 mph

Today
High -- | Low -- °F
--% Chance of Precip.
Yesterday
High -- | Low -- °F
Precip. -- in
Pressure 30.06 in
Visibility 10.0 miles
Clouds Scattered Clouds 100 ft
Scattered Clouds 4100 ft
Overcast 10000 ft
Dew Point 56 °F
Humidity 96%
Rainfall 0.01 in
Snow Depth Not available.
7:18 AM 7:06 PM
Waning Crescent, 0% visible
METAR KLWB 300915Z AUTO 29003KT 10SM SCT001 SCT041 OVC100 14/13 A3006 RMK AO2 T01350134
Pressure 30.06 in
Visibility 10.0 miles
Clouds Scattered Clouds 100 ft
Scattered Clouds 4100 ft
Overcast 10000 ft
Dew Point 56 °F
Humidity 96%
Rainfall 0.01 in
Snow Depth Not available.
7:18 AM 7:06 PM
Waning Crescent, 0% visible
METAR KLWB 300915Z AUTO 29003KT 10SM SCT001 SCT041 OVC100 14/13 A3006 RMK AO2 T01350134

10-Day Weather Forecast

Almanac

Astronomy

Sep. 30, 2016 Rise Set
Actual Time
Civil Twilight
Nautical Twilight
Astronomical Twilight
Moon
Length of Visible Light
Length of Day
Tomorrow will be .
, % of the Moon is Illuminated

Today's Extremes

State Highs State Lows

Community

WunderPhotos

Upload Photos

1,942,684 photos uploaded!

WunderBlog® & News

Nearby

Air Quality

  Air Quality AQ Index Pollutant
Not available.

Snow Depth

Station Depth Elevation

Earthquake Activity

City Distance Mag. Time & Date
Minimum magnitude displayed is 2.5.

Coastal Water Temperatures

Place Temperature

Stations

Nearby Weather Stations

Station Location Temp. Windchill Dew Point Humidity Wind Precip. Elev Updated Type
                   

Watches & Warnings

There are currently no watches in effect.